Time;durP1;ratioP1;P1;durP2;ratioP2;P2;SDS_P1;SDS_P2;PMS_P1;PMS_P2;Temp;Humidity;BMP_temperature;BMP_pressure;BME280_temperature;BME280_humidity;BME280_pressure;Samples;Min_cycle;Max_cycle;Signal;HPM_P1;HPM_P2
2022/05/22 00:02:08;;;;;;;4.30;3.90;;;;;;;;;;4991042;28;20121;-74
2022/05/22 00:04:33;;;;;;;4.82;3.58;;;;;;;;;;5001762;28;20021;-75
2022/05/22 00:06:59;;;;;;;3.63;3.33;;;;;;;;;;5001225;28;20433;-73
2022/05/22 00:09:24;;;;;;;4.63;3.40;;;;;;;;;;5000842;28;20034;-77
2022/05/22 00:11:50;;;;;;;4.38;3.97;;;;;;;;;;4990685;28;20026;-73
2022/05/22 00:14:15;;;;;;;3.40;3.15;;;;;;;;;;5002801;28;20029;-77
2022/05/22 00:16:46;;;;;;;3.50;3.20;;;;;;;;;;5001287;28;20525;-73
2022/05/22 00:19:25;;;;;;;4.15;2.80;;;;;;;;;;5001290;28;20030;-74
2022/05/22 00:21:51;;;;;;;3.30;3.00;;;;;;;;;;5001480;28;20083;-72
2022/05/22 00:24:17;;;;;;;3.95;3.63;;;;;;;;;;4999527;28;20045;-77
2022/05/22 00:26:43;;;;;;;8.00;3.65;;;;;;;;;;4990464;28;20076;-77
2022/05/22 00:29:08;;;;;;;4.95;4.32;;;;;;;;;;5002782;28;20080;-71
2022/05/22 00:31:33;;;;;;;4.30;3.90;;;;;;;;;;5005966;28;20811;-72
2022/05/22 00:33:59;;;;;;;4.10;3.70;;;;;;;;;;5005689;28;20041;-73
2022/05/22 00:36:24;;;;;;;5.13;4.55;;;;;;;;;;5006255;28;20099;-71
2022/05/22 00:38:50;;;;;;;4.55;4.13;;;;;;;;;;4994005;28;20025;-72
2022/05/22 00:41:15;;;;;;;5.03;4.53;;;;;;;;;;4997948;28;20463;-71
2022/05/22 00:43:42;;;;;;;4.65;4.07;;;;;;;;;;4991838;28;20053;-71
2022/05/22 00:46:11;;;;;;;5.13;4.70;;;;;;;;;;4991316;28;20022;-72
2022/05/22 00:48:37;;;;;;;4.88;4.00;;;;;;;;;;5003996;28;20166;-72
2022/05/22 00:51:05;;;;;;;4.22;3.83;;;;;;;;;;4993380;28;20453;-73
2022/05/22 00:53:32;;;;;;;5.30;3.80;;;;;;;;;;5005609;28;20053;-71
2022/05/22 00:55:59;;;;;;;5.07;3.90;;;;;;;;;;5006449;28;20042;-71
2022/05/22 00:58:25;;;;;;;6.88;4.75;;;;;;;;;;4993166;28;20233;-77
2022/05/22 01:00:50;;;;;;;4.50;4.10;;;;;;;;;;4989473;28;20384;-76
2022/05/22 01:03:26;;;;;;;6.60;4.50;;;;;;;;;;4992113;28;20036;-71
2022/05/22 01:05:53;;;;;;;5.55;4.07;;;;;;;;;;4992353;28;20034;-73
2022/05/22 01:08:18;;;;;;;6.45;4.68;;;;;;;;;;4992730;28;20036;-72
2022/05/22 01:10:50;;;;;;;3.55;3.25;;;;;;;;;;5005461;28;20038;-72
2022/05/22 01:13:18;;;;;;;4.10;3.78;;;;;;;;;;4998440;28;20030;-72
2022/05/22 01:15:44;;;;;;;4.55;3.58;;;;;;;;;;4991490;28;20033;-72
2022/05/22 01:18:09;;;;;;;5.22;3.70;;;;;;;;;;4990857;28;20356;-72
2022/05/22 01:20:34;;;;;;;4.35;3.92;;;;;;;;;;4992373;28;20116;-73
2022/05/22 01:23:00;;;;;;;4.05;3.65;;;;;;;;;;4996573;28;20025;-73
2022/05/22 01:25:25;;;;;;;4.72;4.18;;;;;;;;;;4989841;28;20037;-72
2022/05/22 01:27:51;;;;;;;3.88;3.58;;;;;;;;;;5002956;28;20112;-72
2022/05/22 01:30:20;;;;;;;3.22;2.92;;;;;;;;;;4998876;28;20026;-74
2022/05/22 01:32:47;;;;;;;3.47;3.17;;;;;;;;;;4990208;28;20079;-73
2022/05/22 01:35:15;;;;;;;2.80;2.60;;;;;;;;;;4990228;28;20065;-77
2022/05/22 01:37:41;;;;;;;3.97;2.67;;;;;;;;;;4990865;28;20022;-71
2022/05/22 01:40:07;;;;;;;4.13;2.40;;;;;;;;;;5002323;28;20535;-71
2022/05/22 01:42:32;;;;;;;2.30;2.10;;;;;;;;;;5001744;28;20874;-75
2022/05/22 01:44:57;;;;;;;3.10;2.83;;;;;;;;;;4994596;28;20432;-73
2022/05/22 01:47:23;;;;;;;3.47;3.17;;;;;;;;;;4994852;28;20117;-75
2022/05/22 01:49:48;;;;;;;3.40;3.10;;;;;;;;;;4989955;28;20030;-79
2022/05/22 01:52:13;;;;;;;2.88;2.67;;;;;;;;;;4996636;28;20085;-73
2022/05/22 01:54:38;;;;;;;2.78;2.42;;;;;;;;;;4997758;28;20050;-72
2022/05/22 01:57:04;;;;;;;4.63;2.88;;;;;;;;;;4996868;28;20108;-72
2022/05/22 01:59:29;;;;;;;3.13;2.75;;;;;;;;;;4992334;28;20445;-71
2022/05/22 02:01:55;;;;;;;4.68;2.75;;;;;;;;;;5003351;28;20025;-72
2022/05/22 02:04:20;;;;;;;3.95;2.85;;;;;;;;;;4990062;28;20026;-71
2022/05/22 02:09:29;;;;;;;3.63;2.55;;;;;;;;;;4997827;28;20153;-76
2022/05/22 02:11:54;;;;;;;2.97;2.67;;;;;;;;;;5004844;28;20113;-75
2022/05/22 02:14:20;;;;;;;2.30;2.10;;;;;;;;;;4997148;28;20113;-74
2022/05/22 02:16:45;;;;;;;2.83;2.55;;;;;;;;;;4997986;28;20044;-76
2022/05/22 02:19:10;;;;;;;2.60;2.40;;;;;;;;;;4989618;28;20117;-75
2022/05/22 02:21:36;;;;;;;2.53;2.33;;;;;;;;;;4989326;28;20061;-72
2022/05/22 02:24:02;;;;;;;2.63;2.30;;;;;;;;;;4988746;28;20030;-72
2022/05/22 02:26:27;;;;;;;2.95;2.10;;;;;;;;;;4994300;28;20045;-71
2022/05/22 02:28:52;;;;;;;2.20;2.00;;;;;;;;;;4991143;28;20433;-74
2022/05/22 02:31:17;;;;;;;2.80;1.80;;;;;;;;;;5003861;28;20030;-72
2022/05/22 02:33:43;;;;;;;2.67;1.70;;;;;;;;;;4993740;28;20810;-72
2022/05/22 02:36:13;;;;;;;2.10;1.90;;;;;;;;;;4993060;28;20025;-75
2022/05/22 02:38:39;;;;;;;1.98;1.77;;;;;;;;;;4986318;28;20022;-72
2022/05/22 02:41:11;;;;;;;2.03;1.58;;;;;;;;;;4994990;28;20121;-75
2022/05/22 02:43:37;;;;;;;1.55;1.45;;;;;;;;;;5003789;28;20025;-73
2022/05/22 02:46:06;;;;;;;1.85;1.73;;;;;;;;;;4992739;28;20049;-73
2022/05/22 02:48:32;;;;;;;1.70;1.60;;;;;;;;;;4988840;28;20029;-75
2022/05/22 02:50:57;;;;;;;2.83;1.95;;;;;;;;;;4988107;28;20041;-72
2022/05/22 02:53:22;;;;;;;1.80;1.70;;;;;;;;;;4992550;28;20056;-72
2022/05/22 02:55:48;;;;;;;3.53;2.25;;;;;;;;;;4999471;28;20115;-72
2022/05/22 02:58:13;;;;;;;1.80;1.67;;;;;;;;;;4998626;28;20084;-72
2022/05/22 03:00:39;;;;;;;1.92;1.83;;;;;;;;;;5005944;28;20021;-73
2022/05/22 03:03:04;;;;;;;3.03;1.70;;;;;;;;;;5011926;28;20362;-72
2022/05/22 03:06:38;;;;;;;2.60;2.17;;;;;;;;;;4983988;28;20034;-75
2022/05/22 03:08:15;;;;;;;2.08;1.88;;;;;;;;;;5009020;28;20029;-74
2022/05/22 03:10:41;;;;;;;1.60;1.50;;;;;;;;;;5004595;28;20943;-72
2022/05/22 03:13:06;;;;;;;1.63;1.52;;;;;;;;;;5017276;28;20029;-72
2022/05/22 03:15:31;;;;;;;2.70;1.58;;;;;;;;;;4998607;28;20042;-72
2022/05/22 03:17:57;;;;;;;2.03;1.67;;;;;;;;;;5012395;28;20111;-73
2022/05/22 03:20:22;;;;;;;3.28;1.55;;;;;;;;;;4998312;28;20175;-72
2022/05/22 03:22:48;;;;;;;1.63;1.52;;;;;;;;;;5000210;28;20443;-72
2022/05/22 03:25:13;;;;;;;2.85;2.08;;;;;;;;;;5014683;28;20033;-77
2022/05/22 03:27:38;;;;;;;1.85;1.27;;;;;;;;;;5003538;28;20031;-72
2022/05/22 03:30:04;;;;;;;2.30;1.80;;;;;;;;;;5015049;28;20040;-75
2022/05/22 03:32:32;;;;;;;1.60;1.50;;;;;;;;;;4993373;28;20365;-72
2022/05/22 03:34:57;;;;;;;4.85;2.22;;;;;;;;;;4980956;28;20357;-72
2022/05/22 03:37:24;;;;;;;1.83;1.73;;;;;;;;;;5010174;28;20033;-75
2022/05/22 03:39:49;;;;;;;3.53;1.60;;;;;;;;;;5003329;28;20097;-72
2022/05/22 03:42:15;;;;;;;2.80;1.73;;;;;;;;;;4986218;28;20142;-72
2022/05/22 03:44:40;;;;;;;2.92;1.80;;;;;;;;;;4981285;28;20438;-72
2022/05/22 03:47:05;;;;;;;2.63;1.90;;;;;;;;;;5001943;28;20034;-73
2022/05/22 03:49:31;;;;;;;5.75;1.92;;;;;;;;;;5009755;28;20044;-72
2022/05/22 03:51:56;;;;;;;4.00;2.17;;;;;;;;;;5014519;28;20353;-73
2022/05/22 03:54:22;;;;;;;2.45;2.15;;;;;;;;;;4996716;28;20479;-73
2022/05/22 03:56:48;;;;;;;7.20;5.03;;;;;;;;;;5001893;28;20037;-78
2022/05/22 03:59:13;;;;;;;5.97;3.83;;;;;;;;;;4994586;28;20028;-75
2022/05/22 04:01:39;;;;;;;3.58;2.90;;;;;;;;;;5005040;28;20026;-72
2022/05/22 04:04:04;;;;;;;2.53;2.30;;;;;;;;;;5013235;28;20037;-72
2022/05/22 04:06:29;;;;;;;2.63;1.90;;;;;;;;;;4995760;28;20349;-70
2022/05/22 04:08:55;;;;;;;1.70;1.60;;;;;;;;;;4984786;28;20072;-71
2022/05/22 04:11:20;;;;;;;5.82;1.80;;;;;;;;;;5007305;28;20061;-75
2022/05/22 04:13:46;;;;;;;1.70;1.60;;;;;;;;;;5017514;28;20053;-71
2022/05/22 04:16:11;;;;;;;1.73;1.58;;;;;;;;;;5016833;28;20037;-72
2022/05/22 04:18:37;;;;;;;1.95;1.75;;;;;;;;;;5017083;28;20025;-72
2022/05/22 04:21:03;;;;;;;1.90;1.80;;;;;;;;;;4984217;28;20049;-75
2022/05/22 04:26:12;;;;;;;2.25;1.63;;;;;;;;;;5015887;28;20481;-71
2022/05/22 04:28:37;;;;;;;1.60;1.50;;;;;;;;;;5002586;28;20017;-71
2022/05/22 04:31:05;;;;;;;2.25;1.70;;;;;;;;;;5013106;28;20034;-71
2022/05/22 04:33:31;;;;;;;2.05;1.85;;;;;;;;;;5014551;28;20037;-74
2022/05/22 04:35:56;;;;;;;4.18;2.25;;;;;;;;;;5011799;28;20091;-72
2022/05/22 04:38:22;;;;;;;3.03;2.08;;;;;;;;;;5014065;28;20116;-72
2022/05/22 04:40:58;;;;;;;2.17;1.75;;;;;;;;;;4994930;28;20023;-72
2022/05/22 04:43:24;;;;;;;1.73;1.63;;;;;;;;;;4987228;28;20867;-72
2022/05/22 04:45:50;;;;;;;2.38;1.70;;;;;;;;;;4991617;28;20473;-72
2022/05/22 04:48:16;;;;;;;1.88;1.67;;;;;;;;;;5002278;28;20448;-74
2022/05/22 04:50:41;;;;;;;2.25;1.58;;;;;;;;;;4993725;28;20065;-76
2022/05/22 04:53:06;;;;;;;2.42;1.90;;;;;;;;;;4994295;28;20064;-73
2022/05/22 04:55:32;;;;;;;3.50;1.80;;;;;;;;;;4985956;28;20053;-72
2022/05/22 04:57:57;;;;;;;2.30;2.10;;;;;;;;;;4987281;28;20394;-77
2022/05/22 05:00:22;;;;;;;1.80;1.70;;;;;;;;;;4986600;28;20453;-72
2022/05/22 05:02:47;;;;;;;2.72;1.83;;;;;;;;;;4986307;28;20092;-72
2022/05/22 05:05:13;;;;;;;3.60;2.40;;;;;;;;;;4987432;28;20129;-73
2022/05/22 05:07:40;;;;;;;2.65;1.83;;;;;;;;;;4987089;28;20030;-76
2022/05/22 05:10:07;;;;;;;2.67;1.95;;;;;;;;;;4978766;28;20346;-72
2022/05/22 05:12:36;;;;;;;4.63;2.53;;;;;;;;;;4985999;28;20025;-74
2022/05/22 05:15:01;;;;;;;6.45;3.55;;;;;;;;;;4988332;28;20084;-78
2022/05/22 05:17:26;;;;;;;8.73;7.35;;;;;;;;;;4996501;28;20465;-76
2022/05/22 05:19:52;;;;;;;9.90;7.40;;;;;;;;;;5004069;28;20369;-72
2022/05/22 05:22:18;;;;;;;7.07;4.25;;;;;;;;;;4988654;28;20104;-73
2022/05/22 05:24:43;;;;;;;4.40;3.20;;;;;;;;;;4994573;28;20030;-72
2022/05/22 05:27:08;;;;;;;4.00;2.85;;;;;;;;;;4990813;28;20342;-72
2022/05/22 05:29:34;;;;;;;4.00;2.55;;;;;;;;;;5000441;28;20368;-75
2022/05/22 05:31:59;;;;;;;5.15;3.55;;;;;;;;;;4986866;28;20034;-79
2022/05/22 05:34:24;;;;;;;6.45;4.53;;;;;;;;;;4987934;28;20464;-75
2022/05/22 05:36:50;;;;;;;6.07;3.60;;;;;;;;;;4988600;28;20038;-73
2022/05/22 05:39:15;;;;;;;4.15;3.00;;;;;;;;;;4989101;28;20018;-75
2022/05/22 05:41:40;;;;;;;5.53;2.90;;;;;;;;;;4989238;28;20024;-76
2022/05/22 05:44:06;;;;;;;4.63;2.80;;;;;;;;;;4989349;28;20025;-72
2022/05/22 05:46:32;;;;;;;2.95;2.40;;;;;;;;;;4988175;28;20038;-73
2022/05/22 05:48:57;;;;;;;4.32;2.10;;;;;;;;;;4989457;28;20017;-72
2022/05/22 05:51:23;;;;;;;3.25;2.10;;;;;;;;;;5002038;28;20577;-72
2022/05/22 05:53:48;;;;;;;3.90;2.75;;;;;;;;;;5000272;28;20037;-72
2022/05/22 05:56:13;;;;;;;3.67;3.08;;;;;;;;;;4990532;28;20037;-75
2022/05/22 05:58:39;;;;;;;2.83;2.53;;;;;;;;;;4988026;28;20077;-73
2022/05/22 06:01:04;;;;;;;4.70;3.55;;;;;;;;;;4992192;28;20040;-75
2022/05/22 06:03:29;;;;;;;4.50;3.95;;;;;;;;;;4988994;28;20025;-78
2022/05/22 06:05:54;;;;;;;4.38;3.40;;;;;;;;;;4998541;28;20109;-75
2022/05/22 06:08:20;;;;;;;2.92;2.60;;;;;;;;;;4989836;28;20169;-74
2022/05/22 06:10:46;;;;;;;5.07;3.20;;;;;;;;;;4989665;28;20030;-72
2022/05/22 06:13:11;;;;;;;4.63;3.60;;;;;;;;;;4981621;28;20017;-72
2022/05/22 06:15:36;;;;;;;3.15;2.50;;;;;;;;;;4989510;28;20044;-72
2022/05/22 06:18:02;;;;;;;3.85;2.17;;;;;;;;;;4987630;28;20026;-73
2022/05/22 06:20:29;;;;;;;2.50;2.30;;;;;;;;;;4988424;28;20017;-73
2022/05/22 06:22:54;;;;;;;2.80;2.45;;;;;;;;;;4989750;28;20034;-77
2022/05/22 06:25:20;;;;;;;3.47;2.53;;;;;;;;;;4988537;28;20099;-72
2022/05/22 06:27:45;;;;;;;4.22;3.00;;;;;;;;;;4994734;28;20026;-72
2022/05/22 06:30:13;;;;;;;3.30;3.00;;;;;;;;;;5003667;28;20030;-71
2022/05/22 06:32:39;;;;;;;4.20;3.13;;;;;;;;;;5003278;28;20029;-73
2022/05/22 06:35:05;;;;;;;2.80;2.60;;;;;;;;;;5004277;28;20112;-75
2022/05/22 06:37:30;;;;;;;3.15;2.85;;;;;;;;;;5003313;28;20117;-71
2022/05/22 06:39:55;;;;;;;4.13;3.17;;;;;;;;;;5004274;28;20495;-72
2022/05/22 06:42:28;;;;;;;4.13;2.17;;;;;;;;;;4989468;28;20017;-72
2022/05/22 06:44:55;;;;;;;3.95;2.33;;;;;;;;;;4986890;28;20021;-73
2022/05/22 06:47:21;;;;;;;2.20;2.00;;;;;;;;;;4988605;28;20388;-72
2022/05/22 06:49:47;;;;;;;2.40;2.20;;;;;;;;;;4988625;28;20028;-71
2022/05/22 06:52:12;;;;;;;3.42;2.20;;;;;;;;;;4990030;28;20040;-73
2022/05/22 06:54:38;;;;;;;2.75;2.30;;;;;;;;;;4988272;28;20125;-72
2022/05/22 06:57:03;;;;;;;2.97;2.78;;;;;;;;;;4988953;28;20038;-72
2022/05/22 06:59:29;;;;;;;3.17;2.47;;;;;;;;;;4995541;28;20026;-74
2022/05/22 07:01:54;;;;;;;2.80;2.10;;;;;;;;;;4995710;28;20029;-77
2022/05/22 07:04:21;;;;;;;2.00;1.80;;;;;;;;;;4992833;28;20034;-78
2022/05/22 07:06:47;;;;;;;2.08;1.85;;;;;;;;;;5003460;28;20038;-72
2022/05/22 07:09:12;;;;;;;2.22;2.08;;;;;;;;;;5003567;28;20087;-73
2022/05/22 07:11:40;;;;;;;8.70;3.13;;;;;;;;;;5004320;28;20024;-71
2022/05/22 07:14:06;;;;;;;3.90;2.80;;;;;;;;;;5002759;28;20022;-75
2022/05/22 07:16:33;;;;;;;3.35;1.90;;;;;;;;;;4981213;28;20124;-72
2022/05/22 07:18:58;;;;;;;3.13;2.70;;;;;;;;;;4991847;28;20444;-75
2022/05/22 07:21:27;;;;;;;2.38;1.73;;;;;;;;;;4990247;28;20018;-72
2022/05/22 07:23:52;;;;;;;2.08;1.70;;;;;;;;;;4989672;28;20029;-73
2022/05/22 07:26:19;;;;;;;3.00;1.90;;;;;;;;;;4992289;28;20106;-73
2022/05/22 07:28:45;;;;;;;2.90;2.10;;;;;;;;;;5002800;28;20033;-74
2022/05/22 07:31:18;;;;;;;2.17;1.70;;;;;;;;;;5000036;28;20044;-75
2022/05/22 07:33:43;;;;;;;2.25;1.60;;;;;;;;;;4995902;28;20036;-73
2022/05/22 07:36:08;;;;;;;2.78;2.03;;;;;;;;;;4987925;28;20041;-72
2022/05/22 07:38:34;;;;;;;1.90;1.58;;;;;;;;;;4987742;28;20030;-71
2022/05/22 07:40:59;;;;;;;3.30;1.70;;;;;;;;;;4999251;28;20018;-71
2022/05/22 07:43:25;;;;;;;2.28;1.88;;;;;;;;;;4991426;28;20029;-78
2022/05/22 07:45:50;;;;;;;3.65;1.63;;;;;;;;;;4998271;28;20099;-74
2022/05/22 07:48:15;;;;;;;2.03;1.73;;;;;;;;;;4993964;28;20029;-75
2022/05/22 07:50:41;;;;;;;2.58;1.98;;;;;;;;;;4990633;28;20418;-76
2022/05/22 07:53:07;;;;;;;2.35;1.95;;;;;;;;;;4990913;28;20045;-79
2022/05/22 07:55:32;;;;;;;2.15;1.83;;;;;;;;;;4985834;28;20048;-73
2022/05/22 07:57:58;;;;;;;2.58;2.22;;;;;;;;;;4982907;28;20038;-72
2022/05/22 08:00:23;;;;;;;3.70;2.38;;;;;;;;;;4986564;28;20040;-72
2022/05/22 08:02:48;;;;;;;3.00;2.15;;;;;;;;;;4988106;28;20456;-73
2022/05/22 08:05:15;;;;;;;2.00;1.80;;;;;;;;;;5007065;28;20083;-73
2022/05/22 08:07:41;;;;;;;3.90;1.77;;;;;;;;;;4995357;28;20029;-76
2022/05/22 08:10:07;;;;;;;3.63;2.30;;;;;;;;;;4997393;28;20546;-72
2022/05/22 08:12:40;;;;;;;2.85;2.13;;;;;;;;;;4986710;28;20503;-71
2022/05/22 08:15:07;;;;;;;2.35;1.88;;;;;;;;;;5000742;28;20035;-72
2022/05/22 08:17:36;;;;;;;3.22;1.85;;;;;;;;;;4967720;28;20121;-78
2022/05/22 08:20:05;;;;;;;1.85;1.60;;;;;;;;;;4982205;28;20061;-72
2022/05/22 08:22:31;;;;;;;1.65;1.55;;;;;;;;;;4998394;28;20452;-71
2022/05/22 08:24:56;;;;;;;1.85;1.48;;;;;;;;;;4995232;28;20030;-71
2022/05/22 08:27:21;;;;;;;8.10;1.58;;;;;;;;;;4977947;28;20070;-70
2022/05/22 08:29:47;;;;;;;2.65;1.48;;;;;;;;;;5000533;28;20030;-74
2022/05/22 08:32:12;;;;;;;4.63;1.70;;;;;;;;;;4987425;28;20033;-71
2022/05/22 08:34:38;;;;;;;1.98;1.70;;;;;;;;;;4999314;28;20034;-75
2022/05/22 08:37:03;;;;;;;1.88;1.70;;;;;;;;;;4996847;28;20043;-75
2022/05/22 08:39:29;;;;;;;4.10;1.90;;;;;;;;;;4978482;28;20030;-76
2022/05/22 08:41:56;;;;;;;1.70;1.42;;;;;;;;;;4976361;28;20038;-72
2022/05/22 08:44:22;;;;;;;3.17;2.10;;;;;;;;;;4990941;28;20025;-70
2022/05/22 08:47:06;;;;;;;2.67;1.90;;;;;;;;;;4994496;28;20034;-73
2022/05/22 08:49:38;;;;;;;2.95;1.83;;;;;;;;;;5000153;28;20125;-76
2022/05/22 08:52:13;;;;;;;2.67;1.92;;;;;;;;;;4997820;28;20025;-72
2022/05/22 08:54:42;;;;;;;3.50;2.70;;;;;;;;;;5000695;28;20050;-72
2022/05/22 09:00:12;;;;;;;2.63;2.42;;;;;;;;;;4987596;28;20041;-70
2022/05/22 09:02:37;;;;;;;2.95;2.30;;;;;;;;;;4988727;28;20034;-73
2022/05/22 09:05:03;;;;;;;4.18;2.85;;;;;;;;;;5000774;28;20357;-72
2022/05/22 09:07:47;;;;;;;4.95;3.15;;;;;;;;;;4998416;28;20353;-70
2022/05/22 09:10:38;;;;;;;3.08;2.58;;;;;;;;;;4998303;28;20029;-71
2022/05/22 09:13:19;;;;;;;3.88;2.42;;;;;;;;;;4964172;28;20069;-74
2022/05/22 09:16:03;;;;;;;2.33;1.98;;;;;;;;;;4992212;28;20053;-71
2022/05/22 09:18:31;;;;;;;5.65;2.17;;;;;;;;;;4993687;28;20506;-69
2022/05/22 09:21:00;;;;;;;2.50;1.90;;;;;;;;;;4988103;28;20030;-72
2022/05/22 09:23:37;;;;;;;1.88;1.70;;;;;;;;;;4989979;28;20034;-70
2022/05/22 09:26:06;;;;;;;2.45;1.85;;;;;;;;;;4995717;28;20144;-70
2022/05/22 09:28:31;;;;;;;2.75;1.48;;;;;;;;;;4993770;28;20429;-70
2022/05/22 09:31:03;;;;;;;2.10;1.30;;;;;;;;;;4987418;28;20036;-72
2022/05/22 09:33:40;;;;;;;2.20;1.40;;;;;;;;;;4989664;28;20032;-72
2022/05/22 09:36:11;;;;;;;1.52;1.35;;;;;;;;;;4998543;28;20041;-73
2022/05/22 09:38:45;;;;;;;1.63;1.50;;;;;;;;;;5003690;28;20033;-76
2022/05/22 09:41:21;;;;;;;2.22;2.00;;;;;;;;;;4995001;28;20030;-77
2022/05/22 09:43:49;;;;;;;3.88;1.90;;;;;;;;;;4987222;28;20075;-73
2022/05/22 09:46:33;;;;;;;2.20;1.55;;;;;;;;;;4989417;28;20116;-76
2022/05/22 09:48:58;;;;;;;1.95;1.52;;;;;;;;;;4989973;28;20515;-74
2022/05/22 09:51:26;;;;;;;3.28;1.65;;;;;;;;;;4991822;28;20025;-73
2022/05/22 09:54:11;;;;;;;2.85;1.80;;;;;;;;;;4989017;28;20045;-78
2022/05/22 09:56:37;;;;;;;3.28;2.50;;;;;;;;;;4992153;28;20027;-76
2022/05/22 09:59:05;;;;;;;4.22;3.30;;;;;;;;;;4989526;28;20348;-76
2022/05/22 10:01:36;;;;;;;2.33;1.30;;;;;;;;;;4987149;28;20069;-77
2022/05/22 10:04:04;;;;;;;1.45;1.35;;;;;;;;;;4987787;28;20029;-75
2022/05/22 10:06:45;;;;;;;1.48;1.40;;;;;;;;;;4987446;28;20046;-75
2022/05/22 10:09:22;;;;;;;1.20;1.10;;;;;;;;;;4996694;28;20061;-76
2022/05/22 10:12:03;;;;;;;1.85;1.40;;;;;;;;;;4996312;28;20501;-74
2022/05/22 10:14:28;;;;;;;1.60;1.42;;;;;;;;;;4995536;28;20037;-75
2022/05/22 10:16:53;;;;;;;1.10;1.10;;;;;;;;;;4989099;28;20037;-75
2022/05/22 10:19:24;;;;;;;2.45;1.30;;;;;;;;;;4987771;28;20132;-79
2022/05/22 10:22:09;;;;;;;1.77;1.10;;;;;;;;;;5003969;28;20034;-73
2022/05/22 10:24:40;;;;;;;1.45;1.35;;;;;;;;;;5003232;28;20503;-76
2022/05/22 10:27:14;;;;;;;1.45;1.10;;;;;;;;;;4991292;28;20041;-74
2022/05/22 10:29:42;;;;;;;2.63;1.30;;;;;;;;;;5002772;28;20112;-75
2022/05/22 10:32:12;;;;;;;1.25;1.15;;;;;;;;;;5002774;28;20026;-72
2022/05/22 10:34:46;;;;;;;1.10;1.10;;;;;;;;;;4988263;28;20026;-71
2022/05/22 10:37:21;;;;;;;2.00;1.30;;;;;;;;;;4987847;28;20447;-74
2022/05/22 10:39:46;;;;;;;1.48;1.17;;;;;;;;;;4989212;28;20037;-71
2022/05/22 10:45:02;;;;;;;2.22;1.42;;;;;;;;;;4990926;28;20048;-72
2022/05/22 10:47:29;;;;;;;1.48;1.38;;;;;;;;;;4983784;28;20108;-77
2022/05/22 10:49:55;;;;;;;1.83;1.73;;;;;;;;;;4987063;28;20472;-71
2022/05/22 10:52:31;;;;;;;1.35;1.23;;;;;;;;;;4987689;28;20021;-73
2022/05/22 10:54:56;;;;;;;1.77;1.38;;;;;;;;;;4985877;28;20052;-73
2022/05/22 10:57:26;;;;;;;1.33;1.23;;;;;;;;;;4986100;28;20033;-73
2022/05/22 10:59:51;;;;;;;1.30;1.10;;;;;;;;;;4985398;28;20119;-73
2022/05/22 11:02:23;;;;;;;1.52;1.42;;;;;;;;;;4987559;28;20116;-71
2022/05/22 11:04:49;;;;;;;1.50;1.40;;;;;;;;;;4987168;28;20030;-72
2022/05/22 11:07:27;;;;;;;1.60;1.50;;;;;;;;;;4987729;28;20442;-70
2022/05/22 11:09:52;;;;;;;1.23;1.13;;;;;;;;;;4988099;28;20072;-77
2022/05/22 11:12:20;;;;;;;1.55;1.30;;;;;;;;;;4987424;28;20057;-74
2022/05/22 11:14:45;;;;;;;1.48;1.38;;;;;;;;;;4985928;28;21230;-73
2022/05/22 11:17:15;;;;;;;1.80;1.70;;;;;;;;;;4985642;28;20044;-73
2022/05/22 11:19:41;;;;;;;1.40;1.30;;;;;;;;;;4998457;28;20113;-74
2022/05/22 11:22:14;;;;;;;1.77;1.33;;;;;;;;;;4992045;28;20056;-72
2022/05/22 11:24:58;;;;;;;1.55;1.40;;;;;;;;;;4998621;28;20080;-75
2022/05/22 11:27:34;;;;;;;1.60;1.50;;;;;;;;;;4999903;28;20033;-73
2022/05/22 11:30:08;;;;;;;3.42;1.55;;;;;;;;;;5001515;28;20342;-80
2022/05/22 11:32:51;;;;;;;1.77;1.30;;;;;;;;;;5002619;28;20029;-78
2022/05/22 11:35:36;;;;;;;1.52;1.27;;;;;;;;;;5000777;28;20376;-73
2022/05/22 11:38:09;;;;;;;1.63;1.40;;;;;;;;;;5002910;28;20026;-76
2022/05/22 11:40:42;;;;;;;1.88;1.50;;;;;;;;;;5002716;28;20027;-73
2022/05/22 11:43:26;;;;;;;1.30;1.20;;;;;;;;;;5002590;28;20029;-75
2022/05/22 11:45:53;;;;;;;1.88;1.67;;;;;;;;;;5002615;28;20452;-74
2022/05/22 11:48:18;;;;;;;2.45;2.15;;;;;;;;;;5002655;28;20052;-73
2022/05/22 11:50:52;;;;;;;2.13;1.70;;;;;;;;;;5002795;28;20065;-76
2022/05/22 11:53:20;;;;;;;4.32;1.73;;;;;;;;;;5002530;28;20327;-72
2022/05/22 11:55:55;;;;;;;2.00;1.58;;;;;;;;;;5002089;28;20038;-74
2022/05/22 11:58:25;;;;;;;1.50;1.40;;;;;;;;;;5002764;28;20132;-73
2022/05/22 12:00:58;;;;;;;1.95;1.85;;;;;;;;;;5003503;28;20116;-73
2022/05/22 12:03:46;;;;;;;2.95;2.40;;;;;;;;;;5001699;28;20032;-77
2022/05/22 12:06:17;;;;;;;1.95;1.60;;;;;;;;;;5002314;28;20034;-73
2022/05/22 12:08:51;;;;;;;4.60;2.50;;;;;;;;;;5002026;28;20349;-75
2022/05/22 12:11:24;;;;;;;2.55;1.83;;;;;;;;;;4991588;28;20400;-73
2022/05/22 12:14:02;;;;;;;12.30;10.20;;;;;;;;;;5002116;28;20026;-77
2022/05/22 12:16:31;;;;;;;9.52;7.30;;;;;;;;;;5002146;28;20038;-73
2022/05/22 12:19:15;;;;;;;2.83;2.53;;;;;;;;;;5000051;28;20030;-74
2022/05/22 12:21:47;;;;;;;2.85;1.58;;;;;;;;;;5001376;28;20025;-75
2022/05/22 12:24:12;;;;;;;4.80;2.80;;;;;;;;;;5001566;28;20030;-73
2022/05/22 12:26:39;;;;;;;3.20;2.70;;;;;;;;;;5005099;28;20034;-74
2022/05/22 12:29:07;;;;;;;2.33;1.90;;;;;;;;;;5006556;28;20053;-72
2022/05/22 12:31:44;;;;;;;2.45;1.60;;;;;;;;;;5006641;28;20030;-77
2022/05/22 12:34:12;;;;;;;4.30;1.85;;;;;;;;;;5006456;28;20052;-75
2022/05/22 12:36:40;;;;;;;1.90;1.60;;;;;;;;;;5004531;28;20021;-72
2022/05/22 12:39:07;;;;;;;2.50;1.80;;;;;;;;;;5004796;28;20108;-73
2022/05/22 12:41:51;;;;;;;3.05;2.13;;;;;;;;;;5006241;28;20464;-73
2022/05/22 12:44:17;;;;;;;2.05;1.85;;;;;;;;;;5006343;28;20473;-71
2022/05/22 12:46:42;;;;;;;2.50;1.90;;;;;;;;;;5005704;28;20132;-72
2022/05/22 12:49:28;;;;;;;2.28;1.80;;;;;;;;;;5005944;28;20044;-75
2022/05/22 12:52:13;;;;;;;1.55;1.45;;;;;;;;;;5008095;28;20038;-72
2022/05/22 12:54:39;;;;;;;2.15;1.55;;;;;;;;;;5005673;28;20053;-74
2022/05/22 12:57:15;;;;;;;3.88;1.63;;;;;;;;;;5005035;28;20041;-76
2022/05/22 12:59:51;;;;;;;3.75;1.52;;;;;;;;;;5005081;28;20314;-73
2022/05/22 13:02:24;;;;;;;1.58;1.33;;;;;;;;;;5005255;28;20472;-78
2022/05/22 13:04:55;;;;;;;1.50;1.40;;;;;;;;;;5005733;28;20030;-73
2022/05/22 13:07:46;;;;;;;1.98;1.77;;;;;;;;;;5006160;28;20034;-73
2022/05/22 13:10:24;;;;;;;2.50;1.30;;;;;;;;;;5000109;28;20050;-76
2022/05/22 13:12:54;;;;;;;2.33;1.42;;;;;;;;;;5005361;28;20026;-73
2022/05/22 13:15:23;;;;;;;3.08;1.70;;;;;;;;;;5004982;28;20438;-73
2022/05/22 13:17:52;;;;;;;3.60;2.00;;;;;;;;;;5005561;28;20096;-72
2022/05/22 13:20:17;;;;;;;;;;;;;;;;;;5005914;28;20037;-77
2022/05/22 13:22:42;;;;;;;1.40;1.30;;;;;;;;;;5004945;28;20367;-77
2022/05/22 13:25:28;;;;;;;1.35;1.25;;;;;;;;;;5004714;28;20055;-73
2022/05/22 13:27:53;;;;;;;1.40;1.30;;;;;;;;;;5003264;28;20410;-73
2022/05/22 13:30:26;;;;;;;1.17;0.98;;;;;;;;;;4992207;28;20088;-73
2022/05/22 13:32:56;;;;;;;1.27;1.08;;;;;;;;;;4986274;28;20038;-74
2022/05/22 13:35:23;;;;;;;1.58;1.48;;;;;;;;;;4990055;28;20022;-74
2022/05/22 13:37:51;;;;;;;1.15;1.15;;;;;;;;;;4974430;28;20133;-76
2022/05/22 13:40:23;;;;;;;2.28;1.58;;;;;;;;;;4978034;28;20105;-73
2022/05/22 13:42:57;;;;;;;1.38;1.23;;;;;;;;;;4990407;28;20083;-73
2022/05/22 13:45:41;;;;;;;1.40;1.23;;;;;;;;;;4990813;28;20034;-73
2022/05/22 13:48:15;;;;;;;1.30;1.20;;;;;;;;;;4992894;28;20434;-72
2022/05/22 13:53:40;;;;;;;1.02;1.02;;;;;;;;;;5004242;28;20396;-72
2022/05/22 13:56:05;;;;;;;2.45;1.20;;;;;;;;;;5001094;28;20037;-73
2022/05/22 13:58:30;;;;;;;1.30;1.23;;;;;;;;;;4992724;28;20025;-77
2022/05/22 14:00:57;;;;;;;1.70;1.30;;;;;;;;;;5003251;28;20039;-71
2022/05/22 14:03:32;;;;;;;1.40;1.30;;;;;;;;;;5003789;28;20642;-71
2022/05/22 14:06:00;;;;;;;1.50;1.10;;;;;;;;;;5002350;28;20045;-75
2022/05/22 14:08:29;;;;;;;1.17;1.08;;;;;;;;;;5003958;28;20124;-72
2022/05/22 14:10:58;;;;;;;1.27;1.10;;;;;;;;;;5002538;28;20458;-73
2022/05/22 14:13:24;;;;;;;1.20;1.10;;;;;;;;;;5003424;28;20021;-74
2022/05/22 14:16:00;;;;;;;1.55;1.40;;;;;;;;;;5000186;28;20112;-72
2022/05/22 14:18:29;;;;;;;1.48;1.20;;;;;;;;;;4989061;28;20048;-75
2022/05/22 14:21:00;;;;;;;1.73;1.13;;;;;;;;;;4989053;28;20112;-71
2022/05/22 14:23:29;;;;;;;2.67;1.33;;;;;;;;;;4989688;28;20056;-74
2022/05/22 14:25:56;;;;;;;1.65;1.02;;;;;;;;;;4972988;28;20045;-72
2022/05/22 14:28:26;;;;;;;2.00;1.55;;;;;;;;;;4989452;28;20030;-73
2022/05/22 14:30:51;;;;;;;2.20;1.27;;;;;;;;;;4988865;28;20385;-74
2022/05/22 14:33:21;;;;;;;1.40;1.30;;;;;;;;;;4991904;28;20022;-73
2022/05/22 14:35:51;;;;;;;1.50;1.40;;;;;;;;;;4993415;28;20029;-76
2022/05/22 14:38:19;;;;;;;1.92;1.70;;;;;;;;;;4988063;28;20029;-76
2022/05/22 14:40:50;;;;;;;1.83;1.10;;;;;;;;;;4988602;28;20026;-76
2022/05/22 14:43:18;;;;;;;2.22;1.00;;;;;;;;;;4988277;28;20017;-74
2022/05/22 14:45:47;;;;;;;1.90;1.35;;;;;;;;;;4987725;28;20046;-74
2022/05/22 14:48:12;;;;;;;;;;;;;;;;;;4975036;28;20088;-75
2022/05/22 14:50:48;;;;;;;2.07;1.53;;;;;;;;;;4974424;28;19914;-73
2022/05/22 14:53:16;;;;;;;1.40;1.30;;;;;;;;;;4985962;28;20050;-73
2022/05/22 14:55:43;;;;;;;2.78;1.55;;;;;;;;;;4986600;28;20057;-76
2022/05/22 14:58:21;;;;;;;4.13;1.75;;;;;;;;;;4987565;28;20349;-72
2022/05/22 15:00:51;;;;;;;1.70;1.60;;;;;;;;;;4988299;28;20108;-72
2022/05/22 15:03:35;;;;;;;2.63;1.60;;;;;;;;;;4987017;28;20050;-73
2022/05/22 15:06:00;;;;;;;1.83;1.20;;;;;;;;;;4987547;28;20042;-73